Time;durP1;ratioP1;P1;durP2;ratioP2;P2;SDS_P1;SDS_P2;PMS_P1;PMS_P2;Temp;Humidity;BMP_temperature;BMP_pressure;BME280_temperature;BME280_humidity;BME280_pressure;Samples;Min_cycle;Max_cycle;Signal;HPM_P1;HPM_P2
2022/02/19 00:00:47;;;;;;;;;;;;;;;22.20;23.07;98096.34;5070631;28;1905;-80
2022/02/19 00:03:13;;;;;;;;;;;;;;;22.48;23.02;98096.78;5067520;28;990;-81
2022/02/19 00:05:39;;;;;;;;;;;;;;;22.39;22.76;98099.50;5071718;28;866;-82
2022/02/19 00:08:05;;;;;;;;;;;;;;;22.16;23.04;98101.31;5067437;28;1010;-79
2022/02/19 00:10:31;;;;;;;;;;;;;;;21.96;23.25;98089.28;5071022;28;1001;-80
2022/02/19 00:12:56;;;;;;;;;;;;;;;21.91;23.51;98084.16;5007967;28;993;-82
2022/02/19 00:15:22;;;;;;;;;;;;;;;22.43;22.74;98089.63;5041369;28;978;-79
2022/02/19 00:17:47;;;;;;;;;;;;;;;22.53;22.56;98084.91;5047082;28;1125;-83
2022/02/19 00:20:14;;;;;;;;;;;;;;;22.14;23.18;98098.16;5049553;28;1979;-81
2022/02/19 00:22:40;;;;;;;;;;;;;;;21.90;23.65;98091.06;5047591;28;939;-82
2022/02/19 00:25:06;;;;;;;;;;;;;;;21.82;23.79;98094.09;5049550;28;1029;-82
2022/02/19 00:27:31;;;;;;;;;;;;;;;22.33;22.97;98088.72;5047652;28;1228;-81
2022/02/19 00:29:57;;;;;;;;;;;;;;;22.44;23.07;98087.63;5050031;28;1223;-82
2022/02/19 00:32:22;;;;;;;;;;;;;;;22.03;23.22;98086.28;5048537;28;1005;-80
2022/02/19 00:34:48;;;;;;;;;;;;;;;21.88;23.53;98085.06;5008394;28;1030;-81
2022/02/19 00:37:13;;;;;;;;;;;;;;;21.98;23.27;98089.66;4988701;28;1656;-79
2022/02/19 00:39:42;;;;;;;;;;;;;;;22.12;23.18;98086.44;4988496;28;1964;-82
2022/02/19 00:42:08;;;;;;;;;;;;;;;22.49;22.79;98092.75;4989374;28;945;-83
2022/02/19 00:44:33;;;;;;;;;;;;;;;22.24;23.06;98097.06;5003782;28;970;-82
2022/02/19 00:46:59;;;;;;;;;;;;;;;21.98;23.25;98090.44;5009884;28;1111;-80
2022/02/19 00:49:25;;;;;;;;;;;;;;;21.89;23.72;98078.16;5007977;28;957;-82
2022/02/19 00:51:50;;;;;;;;;;;;;;;21.89;23.52;98076.13;5009678;28;953;-82
2022/02/19 00:54:16;;;;;;;;;;;;;;;22.38;22.79;98078.03;5007369;28;1078;-79
2022/02/19 00:56:41;;;;;;;;;;;;;;;22.48;22.69;98071.28;5009585;28;1434;-83
2022/02/19 00:59:09;;;;;;;;;;;;;;;21.91;23.34;98070.00;4991513;28;1215;-82
2022/02/19 01:01:36;;;;;;;;;;;;;;;22.06;23.19;98065.53;4950856;29;1980;-82
2022/02/19 01:04:12;;;;;;;;;;;;;;;21.97;23.30;98060.53;4949178;29;981;-82
2022/02/19 01:06:37;;;;;;;;;;;;;;;22.31;23.22;98068.50;4935038;29;982;-81
2022/02/19 01:09:04;;;;;;;;;;;;;;;22.50;22.65;98060.28;4927923;29;1304;-82
2022/02/19 01:11:29;;;;;;;;;;;;;;;21.97;23.27;98060.53;4932473;29;999;-81
2022/02/19 01:13:55;;;;;;;;;;;;;;;21.87;23.55;98055.16;4930353;29;1173;-82
2022/02/19 01:16:21;;;;;;;;;;;;;;;22.07;23.68;98048.13;4931249;29;1213;-80
2022/02/19 01:18:47;;;;;;;;;;;;;;;22.24;23.11;98051.72;4899221;29;1278;-82
2022/02/19 01:21:15;;;;;;;;;;;;;;;22.56;22.61;98055.66;4912827;29;1919;-82
2022/02/19 01:23:40;;;;;;;;;;;;;;;22.12;23.20;98054.47;4911314;29;944;-82
2022/02/19 01:26:06;;;;;;;;;;;;;;;21.95;23.39;98043.16;4913493;29;1264;-78
2022/02/19 01:28:31;;;;;;;;;;;;;;;21.83;23.67;98039.03;4927664;29;1174;-81
2022/02/19 01:30:58;;;;;;;;;;;;;;;22.24;23.26;98037.53;4931978;29;1443;-82
2022/02/19 01:33:24;;;;;;;;;;;;;;;22.47;23.01;98035.66;4955570;29;1761;-78
2022/02/19 01:35:49;;;;;;;;;;;;;;;22.39;22.75;98040.75;4971105;29;1119;-82
2022/02/19 01:38:14;;;;;;;;;;;;;;;22.31;22.98;98033.69;4912691;29;1561;-82
2022/02/19 01:40:40;;;;;;;;;;;;;;;21.89;23.78;98030.00;4900574;29;1891;-81
2022/02/19 01:43:06;;;;;;;;;;;;;;;21.96;23.26;98024.13;4910183;29;981;-83
2022/02/19 01:45:31;;;;;;;;;;;;;;;21.96;23.68;98036.25;4895388;29;927;-81
2022/02/19 01:47:57;;;;;;;;;;;;;;;22.19;23.30;98060.75;4905733;29;961;-83
2022/02/19 01:50:23;;;;;;;;;;;;;;;22.45;22.76;98038.16;4913321;29;1106;-81
2022/02/19 01:52:49;;;;;;;;;;;;;;;22.08;23.22;98043.25;4891934;29;1257;-81
2022/02/19 01:55:23;;;;;;;;;;;;;;;21.84;23.42;98031.34;4895236;29;1182;-82
2022/02/19 01:58:16;;;;;;;;;;;;;;;22.04;23.52;98036.88;4892289;29;988;-81
2022/02/19 02:01:04;;;;;;;;;;;;;;;22.26;23.08;98043.53;4893618;29;1930;-82
2022/02/19 02:03:48;;;;;;;;;;;;;;;22.15;23.04;98026.06;4891663;29;867;-82
2022/02/19 02:06:24;;;;;;;;;;;;;;;21.96;23.43;98030.59;4893923;29;1065;-81
2022/02/19 02:08:50;;;;;;;;;;;;;;;21.85;23.46;98027.25;4895448;29;1245;-83
2022/02/19 02:11:16;;;;;;;;;;;;;;;21.97;23.83;98034.25;4875414;29;1145;-79
2022/02/19 02:13:56;;;;;;;;;;;;;;;22.27;22.99;98039.47;4866583;29;1214;-81
2022/02/19 02:16:34;;;;;;;;;;;;;;;22.52;22.86;98037.94;4892235;29;978;-80
2022/02/19 02:19:00;;;;;;;;;;;;;;;21.99;23.30;98034.59;4926820;29;1157;-81
2022/02/19 02:21:26;;;;;;;;;;;;;;;21.90;23.23;98049.38;4950047;29;1955;-81
2022/02/19 02:23:53;;;;;;;;;;;;;;;21.70;24.04;98041.00;4939155;29;1137;-81
2022/02/19 02:26:19;;;;;;;;;;;;;;;22.19;23.08;98043.75;4934555;29;1266;-82
2022/02/19 02:28:45;;;;;;;;;;;;;;;22.33;22.91;98040.53;4948749;29;1262;-81
2022/02/19 02:31:11;;;;;;;;;;;;;;;22.12;22.96;98038.28;4930120;29;1136;-83
2022/02/19 02:33:36;;;;;;;;;;;;;;;21.88;23.32;98051.06;4929039;29;1000;-82
2022/02/19 02:36:10;;;;;;;;;;;;;;;21.64;23.73;98042.78;4877965;29;1150;-78
2022/02/19 02:38:42;;;;;;;;;;;;;;;22.04;23.73;98045.38;4877754;29;1196;-83
2022/02/19 02:41:07;;;;;;;;;;;;;;;22.36;23.13;98045.28;4854866;29;1955;-81
2022/02/19 02:43:33;;;;;;;;;;;;;;;22.35;23.10;98051.41;4800085;30;1218;-80
2022/02/19 02:46:00;;;;;;;;;;;;;;;21.95;23.56;98046.00;4812994;29;1335;-82
2022/02/19 02:48:25;;;;;;;;;;;;;;;21.89;23.58;98049.84;4832744;29;1167;-79
2022/02/19 02:50:51;;;;;;;;;;;;;;;22.03;23.40;98050.25;4856343;29;1112;-82
2022/02/19 02:53:17;;;;;;;;;;;;;;;22.21;23.08;98052.59;4841152;29;1187;-82
2022/02/19 02:55:43;;;;;;;;;;;;;;;22.31;23.14;98062.84;4879040;29;1195;-82
2022/02/19 02:58:08;;;;;;;;;;;;;;;21.86;23.59;98060.00;4875221;29;1118;-82
2022/02/19 03:00:34;;;;;;;;;;;;;;;21.68;23.98;98068.19;4881832;29;1887;-82
2022/02/19 03:02:59;;;;;;;;;;;;;;;21.63;24.11;98075.19;4874786;29;1466;-81
2022/02/19 03:05:26;;;;;;;;;;;;;;;22.04;23.39;98074.50;4897384;29;1239;-79
2022/02/19 03:07:52;;;;;;;;;;;;;;;22.29;23.32;98081.56;4897802;29;1058;-82
2022/02/19 03:10:18;;;;;;;;;;;;;;;22.15;23.30;98081.94;4896211;29;1306;-79
2022/02/19 03:12:44;;;;;;;;;;;;;;;21.88;23.63;98085.06;4894482;29;1289;-82
2022/02/19 03:15:10;;;;;;;;;;;;;;;21.88;23.57;98085.06;4882085;29;1137;-82
2022/02/19 03:17:38;;;;;;;;;;;;;;;22.05;23.45;98083.78;4878338;29;953;-83
2022/02/19 03:20:04;;;;;;;;;;;;;;;22.09;23.45;98076.00;4914615;29;1888;-80
2022/02/19 03:22:30;;;;;;;;;;;;;;;22.08;23.18;98082.91;4913577;29;1339;-82
2022/02/19 03:24:56;;;;;;;;;;;;;;;21.85;23.64;98084.69;4914685;29;1320;-81
2022/02/19 03:27:22;;;;;;;;;;;;;;;21.75;23.87;98097.09;4928689;29;979;-80
2022/02/19 03:29:47;;;;;;;;;;;;;;;22.08;23.74;98088.56;4933066;29;1147;-82
2022/02/19 03:32:13;;;;;;;;;;;;;;;22.31;22.95;98085.50;4951194;29;1169;-79
2022/02/19 03:34:38;;;;;;;;;;;;;;;22.43;22.98;98077.50;4916822;29;1106;-82
2022/02/19 03:37:05;;;;;;;;;;;;;;;22.09;23.19;98078.81;4914578;29;985;-82
2022/02/19 03:39:30;;;;;;;;;;;;;;;21.79;23.56;98077.19;4893487;29;1892;-82
2022/02/19 03:41:57;;;;;;;;;;;;;;;22.08;23.48;98088.56;4888302;29;936;-81
2022/02/19 03:44:23;;;;;;;;;;;;;;;22.22;23.27;98093.88;4909688;29;1240;-82
2022/02/19 03:46:57;;;;;;;;;;;;;;;22.38;22.98;98097.88;4926925;29;1224;-82
2022/02/19 03:49:33;;;;;;;;;;;;;;;21.91;23.50;98089.84;4927670;29;1151;-83
2022/02/19 03:51:59;;;;;;;;;;;;;;;21.75;23.97;98093.47;4915302;29;990;-82
2022/02/19 03:54:24;;;;;;;;;;;;;;;21.89;23.86;98078.16;4912614;29;1209;-82
2022/02/19 03:56:51;;;;;;;;;;;;;;;22.19;23.23;98094.78;4902937;29;1228;-82
2022/02/19 03:59:18;;;;;;;;;;;;;;;22.22;23.27;98087.41;4915072;29;1289;-80
2022/02/19 04:01:44;;;;;;;;;;;;;;;22.11;23.20;98087.69;4917039;29;1966;-82
2022/02/19 04:04:14;;;;;;;;;;;;;;;21.96;23.58;98080.78;4895889;29;1450;-81
2022/02/19 04:06:40;;;;;;;;;;;;;;;21.76;23.51;98078.91;4933660;29;1539;-81
2022/02/19 04:09:07;;;;;;;;;;;;;;;22.03;23.73;98083.44;4930978;29;1156;-82
2022/02/19 04:11:36;;;;;;;;;;;;;;;22.46;23.06;98091.59;4969548;28;1169;-81
2022/02/19 04:14:01;;;;;;;;;;;;;;;22.13;23.21;98096.56;4970074;29;1121;-83
2022/02/19 04:16:34;;;;;;;;;;;;;;;21.83;23.61;98104.19;5009986;28;1151;-81
2022/02/19 04:19:00;;;;;;;;;;;;;;;21.64;23.73;98099.41;4931398;29;1330;-81
2022/02/19 04:21:25;;;;;;;;;;;;;;;22.05;23.66;98086.63;4932271;29;1887;-79
2022/02/19 04:23:52;;;;;;;;;;;;;;;22.10;23.52;98091.75;4931448;29;1067;-80
2022/02/19 04:26:19;;;;;;;;;;;;;;;22.05;23.50;98089.47;4936644;29;1295;-82
2022/02/19 04:28:50;;;;;;;;;;;;;;;21.76;24.09;98084.56;4966339;29;1139;-81
2022/02/19 04:31:21;;;;;;;;;;;;;;;21.85;23.48;98090.38;4935990;29;1441;-81
2022/02/19 04:33:54;;;;;;;;;;;;;;;22.12;23.66;98083.63;4966077;29;1555;-82
2022/02/19 04:36:20;;;;;;;;;;;;;;;22.19;23.26;98082.66;4989483;28;1109;-81
2022/02/19 04:38:47;;;;;;;;;;;;;;;22.07;23.53;98081.28;4968216;29;1412;-82
2022/02/19 04:41:12;;;;;;;;;;;;;;;21.88;23.87;98087.91;4989314;28;1994;-83
2022/02/19 04:43:38;;;;;;;;;;;;;;;21.79;23.58;98078.00;5007771;28;1135;-80
2022/02/19 04:46:07;;;;;;;;;;;;;;;22.07;23.58;98075.63;4974267;28;1121;-82
2022/02/19 04:48:33;;;;;;;;;;;;;;;22.31;23.15;98071.34;4971603;28;1140;-83
2022/02/19 04:50:59;;;;;;;;;;;;;;;22.17;23.10;98085.09;5007456;28;1077;-82
2022/02/19 04:53:25;;;;;;;;;;;;;;;21.93;23.72;98081.69;5007683;28;1232;-81
2022/02/19 04:55:50;;;;;;;;;;;;;;;21.81;23.66;98080.38;4967036;29;1062;-82
2022/02/19 04:58:18;;;;;;;;;;;;;;;22.05;23.76;98086.63;4949073;29;2410;-81
2022/02/19 05:00:44;;;;;;;;;;;;;;;22.10;23.41;98091.75;4952316;29;1962;-81
2022/02/19 05:03:18;;;;;;;;;;;;;;;22.36;23.05;98087.00;4949150;29;976;-81
2022/02/19 05:05:52;;;;;;;;;;;;;;;21.82;23.69;98102.59;4936276;29;1681;-82
2022/02/19 05:08:19;;;;;;;;;;;;;;;21.76;23.83;98107.22;4932418;29;1674;-78
2022/02/19 05:10:46;;;;;;;;;;;;;;;21.99;23.76;98113.91;4932029;29;1185;-82
2022/02/19 05:13:15;;;;;;;;;;;;;;;22.18;23.38;98115.88;4909920;29;1247;-82
2022/02/19 05:15:40;;;;;;;;;;;;;;;22.15;23.27;98105.41;4948575;29;1153;-79
2022/02/19 05:18:26;;;;;;;;;;;;;;;21.72;23.69;98128.38;4932318;29;1483;-81
2022/02/19 05:20:54;;;;;;;;;;;;;;;21.62;24.07;98118.09;4947239;29;1884;-81
2022/02/19 05:23:22;;;;;;;;;;;;;;;22.00;23.82;98119.13;4940001;29;1126;-82
2022/02/19 05:25:50;;;;;;;;;;;;;;;22.41;23.13;98125.34;4956161;28;1337;-82
2022/02/19 05:28:15;;;;;;;;;;;;;;;22.48;22.95;98122.31;4986136;28;1355;-82
2022/02/19 05:30:41;;;;;;;;;;;;;;;22.01;23.70;98117.88;4989653;28;1315;-81
2022/02/19 05:33:27;;;;;;;;;;;;;;;21.94;23.30;98105.94;4987805;28;1030;-81
2022/02/19 05:35:53;;;;;;;;;;;;;;;22.18;23.48;98109.41;4989435;28;1195;-80
2022/02/19 05:38:18;;;;;;;;;;;;;;;22.43;23.25;98103.00;4988427;28;1280;-82
2022/02/19 05:40:48;;;;;;;;;;;;;;;22.34;23.04;98107.31;5009172;28;1898;-82
2022/02/19 05:43:13;;;;;;;;;;;;;;;22.02;23.48;98104.50;5006271;28;1371;-83
2022/02/19 05:45:46;;;;;;;;;;;;;;;21.82;23.86;98115.97;5009819;28;1477;-81
2022/02/19 05:48:17;;;;;;;;;;;;;;;21.81;24.29;98118.00;5022010;28;1362;-81
2022/02/19 05:50:54;;;;;;;;;;;;;;;22.23;23.30;98114.53;5025340;28;1612;-82
2022/02/19 05:53:27;;;;;;;;;;;;;;;22.34;23.05;98117.84;5022770;28;1456;-81
2022/02/19 05:55:53;;;;;;;;;;;;;;;21.98;23.81;98121.63;5024977;28;1248;-83
2022/02/19 05:58:19;;;;;;;;;;;;;;;21.76;24.21;98112.88;5013171;28;1177;-81
2022/02/19 06:00:52;;;;;;;;;;;;;;;21.76;24.14;98106.41;5024420;28;1902;-82
2022/02/19 06:03:17;;;;;;;;;;;;;;;22.14;23.69;98112.31;4966668;29;1051;-80
2022/02/19 06:05:43;;;;;;;;;;;;;;;22.19;23.36;98105.31;4970214;28;1105;-82
2022/02/19 06:08:09;;;;;;;;;;;;;;;21.88;23.68;98102.06;4983058;28;1046;-80
2022/02/19 06:10:35;;;;;;;;;;;;;;;21.77;23.89;98119.34;4989941;28;869;-80
2022/02/19 06:13:01;;;;;;;;;;;;;;;21.84;24.13;98119.94;4986150;28;1606;-83
2022/02/19 06:15:34;;;;;;;;;;;;;;;22.24;23.61;98131.06;4990187;28;1404;-80
2022/02/19 06:18:19;;;;;;;;;;;;;;;22.33;23.32;98128.41;4986319;28;1067;-82
2022/02/19 06:20:46;;;;;;;;;;;;;;;21.99;23.48;98136.56;4919277;29;1880;-82
2022/02/19 06:23:21;;;;;;;;;;;;;;;21.83;23.88;98132.53;4932724;29;1371;-78
2022/02/19 06:25:46;;;;;;;;;;;;;;;22.09;23.75;98135.50;4952886;29;876;-82
2022/02/19 06:28:12;;;;;;;;;;;;;;;22.20;23.63;98133.19;4934296;29;1161;-81
2022/02/19 06:30:42;;;;;;;;;;;;;;;22.16;23.70;98129.66;4966605;29;1183;-81
2022/02/19 06:33:10;;;;;;;;;;;;;;;21.95;23.66;98125.31;4950329;28;1595;-80
2022/02/19 06:35:36;;;;;;;;;;;;;;;21.90;23.96;98114.53;4994430;28;1180;-78
2022/02/19 06:38:17;;;;;;;;;;;;;;;22.29;23.66;98115.56;4990027;28;1336;-79
2022/02/19 06:40:43;;;;;;;;;;;;;;;22.45;23.21;98123.22;5009080;28;1940;-83
2022/02/19 06:43:09;;;;;;;;;;;;;;;22.26;23.14;98134.25;4995344;28;1159;-80
2022/02/19 06:45:35;;;;;;;;;;;;;;;21.99;23.80;98130.91;5033642;28;1134;-82
2022/02/19 06:48:02;;;;;;;;;;;;;;;21.96;23.75;98128.94;5009931;28;1262;-82
2022/02/19 06:50:27;;;;;;;;;;;;;;;22.24;23.56;98127.44;5013422;28;1092;-82
2022/02/19 06:52:57;;;;;;;;;;;;;;;22.47;23.09;98126.41;5008988;28;1263;-82
2022/02/19 06:55:22;;;;;;;;;;;;;;;22.22;23.22;98116.53;5012748;28;1252;-77
2022/02/19 06:57:49;;;;;;;;;;;;;;;22.04;23.50;98121.88;5009774;28;1211;-82
2022/02/19 07:00:16;;;;;;;;;;;;;;;21.97;23.48;98122.06;4996004;28;1991;-80
2022/02/19 07:02:47;;;;;;;;;;;;;;;22.23;23.55;98123.81;4993261;28;1176;-80
2022/02/19 07:05:13;;;;;;;;;;;;;;;22.42;23.21;98118.44;4992673;28;976;-81
2022/02/19 07:08:05;;;;;;;;;;;;;;;22.19;23.22;98123.13;4988960;28;1051;-81
2022/02/19 07:10:31;;;;;;;;;;;;;;;21.87;23.99;98134.47;4993641;28;1284;-81
2022/02/19 07:12:58;;;;;;;;;;;;;;;21.75;24.03;98139.59;4989431;28;1097;-79
2022/02/19 07:15:23;;;;;;;;;;;;;;;21.90;24.08;98130.72;4992844;28;915;-81
2022/02/19 07:18:01;;;;;;;;;;;;;;;22.27;23.38;98118.03;4988871;28;1283;-82
2022/02/19 07:20:33;;;;;;;;;;;;;;;22.31;23.29;98119.53;4995252;28;1960;-82
2022/02/19 07:22:59;;;;;;;;;;;;;;;22.03;23.55;98125.94;4990692;28;1099;-81
2022/02/19 07:25:24;;;;;;;;;;;;;;;21.97;23.79;98139.06;4995357;28;1104;-80
2022/02/19 07:27:50;;;;;;;;;;;;;;;21.96;24.05;98143.13;4992713;28;1246;-82
2022/02/19 07:30:17;;;;;;;;;;;;;;;22.18;23.72;98138.53;4995637;28;1569;-81
2022/02/19 07:32:44;;;;;;;;;;;;;;;22.31;23.28;98133.69;5027797;28;1102;-81
2022/02/19 07:35:22;;;;;;;;;;;;;;;21.91;23.94;98140.81;5014912;28;1197;-78
2022/02/19 07:37:48;;;;;;;;;;;;;;;21.97;23.69;98139.06;5010512;28;1300;-82
2022/02/19 07:40:15;;;;;;;;;;;;;;;21.92;23.76;98125.44;5013921;28;1969;-82
2022/02/19 07:42:42;;;;;;;;;;;;;;;22.21;23.53;98126.28;5026837;28;1580;-82
2022/02/19 07:45:34;;;;;;;;;;;;;;;22.41;23.17;98128.19;5011417;28;1000;-82
2022/02/19 07:48:29;;;;;;;;;;;;;;;22.47;23.02;98132.06;4989903;28;1024;-82
2022/02/19 07:59:59;;;;;;;;;;;;;;;22.26;23.72;98134.25;4948847;29;1962;-83
2022/02/19 08:02:25;;;;;;;;;;;;;;;22.17;23.52;98131.25;4949086;29;1173;-83
2022/02/19 08:04:51;;;;;;;;;;;;;;;21.82;24.34;98133.75;4970367;28;1201;-81
2022/02/19 08:07:17;;;;;;;;;;;;;;;21.74;23.96;98126.66;4970814;28;1500;-82
2022/02/19 08:09:43;;;;;;;;;;;;;;;21.81;24.02;98120.84;4950770;29;1156;-81
2022/02/19 08:12:08;;;;;;;;;;;;;;;22.13;23.63;98129.78;4951662;29;1320;-81
2022/02/19 08:14:34;;;;;;;;;;;;;;;22.20;23.54;98119.03;4950637;29;970;-81
2022/02/19 08:16:59;;;;;;;;;;;;;;;21.79;23.90;98123.31;4951960;29;1055;-82
2022/02/19 08:19:25;;;;;;;;;;;;;;;21.74;24.24;98115.34;4950036;29;1141;-82
2022/02/19 08:21:50;;;;;;;;;;;;;;;21.69;24.33;98112.25;4946183;29;1887;-81
2022/02/19 08:24:16;;;;;;;;;;;;;;;22.15;23.67;98110.28;4915216;29;1007;-82
2022/02/19 08:26:41;;;;;;;;;;;;;;;22.42;23.27;98107.09;4932201;29;935;-82
2022/02/19 08:29:08;;;;;;;;;;;;;;;22.21;23.35;98092.28;4945934;29;979;-81
2022/02/19 08:31:36;;;;;;;;;;;;;;;21.96;23.77;98089.28;4951485;29;956;-80
2022/02/19 08:34:02;;;;;;;;;;;;;;;21.83;24.09;98095.69;4948322;29;940;-79
2022/02/19 08:36:27;;;;;;;;;;;;;;;22.09;23.74;98095.84;4934022;29;950;-79
2022/02/19 08:38:52;;;;;;;;;;;;;;;22.17;23.51;98107.78;4947742;29;1012;-81
2022/02/19 08:41:18;;;;;;;;;;;;;;;22.03;23.46;98108.94;4935288;29;1978;-82
2022/02/19 08:43:43;;;;;;;;;;;;;;;21.91;24.13;98101.16;4929277;29;996;-81
2022/02/19 08:46:09;;;;;;;;;;;;;;;21.82;24.21;98105.44;4932739;29;1117;-81
2022/02/19 08:48:34;;;;;;;;;;;;;;;22.38;23.32;98093.00;4948199;29;950;-81
2022/02/19 08:51:00;;;;;;;;;;;;;;;22.36;23.16;98087.81;4949880;29;939;-81
2022/02/19 08:53:26;;;;;;;;;;;;;;;21.99;23.57;98097.69;4946722;29;990;-80
2022/02/19 08:55:51;;;;;;;;;;;;;;;21.83;23.78;98092.88;4946412;29;1000;-79
2022/02/19 08:58:17;;;;;;;;;;;;;;;21.74;24.13;98092.69;4971863;28;998;-79
2022/02/19 09:00:42;;;;;;;;;;;;;;;22.14;23.65;98092.47;4988984;28;1883;-79
2022/02/19 09:03:08;;;;;;;;;;;;;;;22.29;23.36;98076.69;5019571;28;963;-80
2022/02/19 09:05:33;;;;;;;;;;;;;;;22.05;23.78;98072.44;5025466;28;981;-80
2022/02/19 09:07:59;;;;;;;;;;;;;;;21.95;23.83;98068.66;5020184;28;891;-80
2022/02/19 09:10:24;;;;;;;;;;;;;;;21.90;23.83;98068.41;5023992;28;971;-79
2022/02/19 09:12:50;;;;;;;;;;;;;;;22.26;23.55;98080.41;5020764;28;965;-79
2022/02/19 09:15:19;;;;;;;;;;;;;;;22.29;23.44;98088.00;5023503;28;1118;-79
2022/02/19 09:17:44;;;;;;;;;;;;;;;22.01;23.57;98077.41;5024301;28;929;-79
2022/02/19 09:20:10;;;;;;;;;;;;;;;21.94;24.00;98094.63;5065662;28;1914;-80
2022/02/19 09:22:37;;;;;;;;;;;;;;;21.80;23.97;98079.56;5061795;28;961;-80
2022/02/19 09:25:03;;;;;;;;;;;;;;;22.30;23.39;98083.94;5065076;28;1025;-80
2022/02/19 09:27:28;;;;;;;;;;;;;;;22.39;23.28;98088.16;5063361;28;933;-80
2022/02/19 09:29:54;;;;;;;;;;;;;;;21.79;24.24;98077.19;5064658;28;915;-80
2022/02/19 09:32:19;;;;;;;;;;;;;;;21.77;24.30;98069.16;5045451;28;987;-78
2022/02/19 09:34:44;;;;;;;;;;;;;;;21.95;23.90;98060.16;5064120;28;826;-78
2022/02/19 09:37:10;;;;;;;;;;;;;;;22.41;23.22;98060.16;5064907;28;1094;-80
2022/02/19 09:39:36;;;;;;;;;;;;;;;22.31;23.33;98056.38;5063371;28;925;-80
2022/02/19 09:42:03;;;;;;;;;;;;;;;21.90;23.78;98049.38;5064411;28;973;-80
2022/02/19 09:44:29;;;;;;;;;;;;;;;21.99;23.92;98052.38;5062497;28;932;-80
2022/02/19 09:46:55;;;;;;;;;;;;;;;22.01;23.97;98044.22;5065284;28;904;-80
2022/02/19 09:49:21;;;;;;;;;;;;;;;22.35;23.31;98040.84;5040085;28;1020;-79
2022/02/19 09:51:46;;;;;;;;;;;;;;;22.39;23.44;98028.63;5043127;28;1095;-80
2022/02/19 09:54:12;;;;;;;;;;;;;;;22.04;23.79;98036.88;5040219;28;905;-80
2022/02/19 09:56:37;;;;;;;;;;;;;;;22.12;23.56;98032.59;5042907;28;928;-79
2022/02/19 09:59:06;;;;;;;;;;;;;;;22.04;23.94;98037.66;5040384;28;894;-80
2022/02/19 10:01:31;;;;;;;;;;;;;;;22.29;23.39;98028.50;5045894;28;1878;-79
2022/02/19 10:04:03;;;;;;;;;;;;;;;22.40;23.32;98019.66;5027427;28;971;-80
2022/02/19 10:06:28;;;;;;;;;;;;;;;22.02;23.87;98013.84;5007488;28;1283;-79
2022/02/19 10:09:09;;;;;;;;;;;;;;;21.93;23.84;98016.53;5004915;28;969;-79
2022/02/19 10:11:35;;;;;;;;;;;;;;;21.97;23.63;98003.09;5007416;28;937;-79
2022/02/19 10:14:04;;;;;;;;;;;;;;;22.27;23.21;98005.44;4984579;28;2092;-80
2022/02/19 10:16:30;;;;;;;;;;;;;;;22.15;23.59;97997.72;4971042;28;922;-80
2022/02/19 10:18:55;;;;;;;;;;;;;;;22.07;23.28;97999.13;4985087;28;968;-80
2022/02/19 10:21:25;;;;;;;;;;;;;;;21.96;23.57;97990.94;4988589;28;1968;-80
2022/02/19 10:23:51;;;;;;;;;;;;;;;21.91;24.06;97999.19;5004475;28;923;-80
2022/02/19 10:26:17;;;;;;;;;;;;;;;22.27;23.00;98011.13;5005890;28;924;-80
2022/02/19 10:29:01;;;;;;;;;;;;;;;22.47;23.12;98007.31;4965114;29;968;-78
2022/02/19 10:31:26;;;;;;;;;;;;;;;22.05;23.48;97998.78;4968386;29;963;-80
2022/02/19 10:34:03;;;;;;;;;;;;;;;22.05;23.38;97987.44;4965712;29;1092;-80
2022/02/19 10:36:28;;;;;;;;;;;;;;;21.97;23.51;97991.75;4969707;28;951;-80
2022/02/19 10:38:55;;;;;;;;;;;;;;;22.23;23.23;97982.09;4984543;28;1317;-80
2022/02/19 10:41:31;;;;;;;;;;;;;;;22.42;22.97;97976.69;4986623;28;1883;-80
2022/02/19 10:43:56;;;;;;;;;;;;;;;22.10;23.55;97967.88;4987308;28;1092;-80
2022/02/19 10:46:25;;;;;;;;;;;;;;;22.08;23.51;97975.22;4985910;28;937;-80
2022/02/19 10:48:50;;;;;;;;;;;;;;;21.95;23.79;97971.56;4984710;28;1025;-80
2022/02/19 10:51:18;;;;;;;;;;;;;;;22.20;23.34;97980.16;4986519;28;902;-80
2022/02/19 10:53:45;;;;;;;;;;;;;;;22.28;22.96;97967.38;4984825;28;1012;-78
2022/02/19 10:56:15;;;;;;;;;;;;;;;22.08;23.25;97963.91;4948970;29;1248;-80
2022/02/19 10:58:59;;;;;;;;;;;;;;;22.01;23.34;97964.09;4948328;29;991;-79
2022/02/19 11:01:24;;;;;;;;;;;;;;;21.72;23.63;97970.56;4973980;28;1887;-80
2022/02/19 11:03:50;;;;;;;;;;;;;;;22.27;23.02;97950.81;4984397;28;1008;-80
2022/02/19 11:06:15;;;;;;;;;;;;;;;22.33;23.14;97946.19;4967128;29;1024;-79
2022/02/19 11:08:41;;;;;;;;;;;;;;;22.21;23.16;97932.78;4927053;29;949;-78
2022/02/19 11:11:07;;;;;;;;;;;;;;;22.16;23.03;97934.13;4929483;29;1065;-80
2022/02/19 11:13:34;;;;;;;;;;;;;;;22.01;23.35;97930.09;4927288;29;956;-78
2022/02/19 11:15:59;;;;;;;;;;;;;;;21.99;23.55;97926.91;4910160;29;953;-80
2022/02/19 11:18:26;;;;;;;;;;;;;;;22.36;22.86;97937.56;4926985;29;1009;-80
2022/02/19 11:20:51;;;;;;;;;;;;;;;22.51;22.62;97934.28;4929569;29;1915;-80
2022/02/19 11:23:17;;;;;;;;;;;;;;;22.15;22.99;97923.25;4926293;29;938;-80
2022/02/19 11:25:42;;;;;;;;;;;;;;;21.89;23.35;97922.38;4911268;29;1033;-80
2022/02/19 11:28:11;;;;;;;;;;;;;;;22.00;23.36;97928.50;4889480;29;1041;-80
2022/02/19 11:30:52;;;;;;;;;;;;;;;22.09;23.32;97920.94;4892098;29;948;-80
2022/02/19 11:33:18;;;;;;;;;;;;;;;22.36;22.77;97929.06;4888297;29;1028;-80
2022/02/19 11:35:43;;;;;;;;;;;;;;;22.14;22.93;97928.13;4891401;29;886;-80
2022/02/19 11:38:22;;;;;;;;;;;;;;;22.06;23.33;97918.19;4904063;29;983;-80
2022/02/19 11:40:50;;;;;;;;;;;;;;;22.01;23.43;97911.03;4965312;29;1891;-80
2022/02/19 11:43:34;;;;;;;;;;;;;;;21.76;23.83;97902.47;4963587;29;1007;-79
2022/02/19 11:46:02;;;;;;;;;;;;;;;22.28;23.03;97899.34;4971376;28;1029;-80
2022/02/19 11:48:29;;;;;;;;;;;;;;;22.49;22.47;97897.09;4983381;28;1016;-80
2022/02/19 11:51:13;;;;;;;;;;;;;;;22.26;22.94;97913.16;4986074;28;840;-80
2022/02/19 11:53:38;;;;;;;;;;;;;;;22.06;23.35;97904.03;4983434;28;981;-79
2022/02/19 11:56:05;;;;;;;;;;;;;;;21.94;23.35;97896.31;4994372;28;955;-79
2022/02/19 11:58:30;;;;;;;;;;;;;;;21.81;23.58;97894.25;5022178;28;974;-79
2022/02/19 12:01:12;;;;;;;;;;;;;;;21.90;23.57;97884.28;5013167;28;1890;-80
2022/02/19 12:03:37;;;;;;;;;;;;;;;22.33;22.75;97893.13;5042352;28;1069;-79
2022/02/19 12:06:07;;;;;;;;;;;;;;;22.03;23.10;97887.94;5025263;28;1109;-80
2022/02/19 12:08:56;;;;;;;;;;;;;;;21.99;23.23;97890.09;5023818;28;995;-80
2022/02/19 12:11:24;;;;;;;;;;;;;;;21.98;23.43;97883.63;5025480;28;1237;-80
2022/02/19 12:13:54;;;;;;;;;;;;;;;22.29;22.99;97895.25;5002691;28;972;-80
2022/02/19 12:16:31;;;;;;;;;;;;;;;22.41;22.77;97888.00;5005190;28;966;-79
2022/02/19 12:18:57;;;;;;;;;;;;;;;22.14;23.32;97884.81;5008873;28;1007;-80
2022/02/19 12:21:32;;;;;;;;;;;;;;;22.04;23.33;97872.53;5024290;28;1965;-80
2022/02/19 12:24:14;;;;;;;;;;;;;;;21.89;23.67;97872.16;5021873;28;971;-80
2022/02/19 12:27:05;;;;;;;;;;;;;;;21.96;23.43;97877.59;5024459;28;936;-79
2022/02/19 12:29:35;;;;;;;;;;;;;;;22.35;22.85;97873.59;5021594;28;977;-80
2022/02/19 12:32:04;;;;;;;;;;;;;;;22.29;22.68;97874.63;5024316;28;1016;-80
2022/02/19 12:34:30;;;;;;;;;;;;;;;22.02;23.59;97863.66;5021373;28;982;-80
2022/02/19 12:36:56;;;;;;;;;;;;;;;21.90;23.59;97868.09;5006460;28;890;-79
2022/02/19 12:39:21;;;;;;;;;;;;;;;21.79;23.58;97868.41;4982892;28;979;-78
2022/02/19 12:41:47;;;;;;;;;;;;;;;21.89;23.46;97872.16;4984300;28;1906;-80
2022/02/19 12:44:17;;;;;;;;;;;;;;;22.19;23.09;97879.38;4976795;28;934;-79
2022/02/19 12:46:42;;;;;;;;;;;;;;;22.47;22.62;97871.22;4965404;28;989;-80
2022/02/19 12:49:08;;;;;;;;;;;;;;;22.08;23.33;97873.22;4982010;28;1087;-79
2022/02/19 12:51:34;;;;;;;;;;;;;;;21.99;23.53;97871.06;4984253;28;1096;-80
2022/02/19 12:53:59;;;;;;;;;;;;;;;21.81;23.75;97880.09;4981641;28;965;-80
2022/02/19 12:56:28;;;;;;;;;;;;;;;21.90;23.51;97861.63;4984731;28;997;-80
2022/02/19 12:58:54;;;;;;;;;;;;;;;22.29;22.96;97866.91;5004480;28;1000;-80
2022/02/19 13:01:24;;;;;;;;;;;;;;;22.40;22.73;97874.28;5029099;28;1903;-78
2022/02/19 13:03:50;;;;;;;;;;;;;;;22.05;23.35;97862.78;5025843;28;890;-80
2022/02/19 13:06:15;;;;;;;;;;;;;;;21.95;23.50;97864.69;5042938;28;917;-80
2022/02/19 13:08:40;;;;;;;;;;;;;;;21.93;23.44;97872.84;5057628;28;943;-80
2022/02/19 13:11:07;;;;;;;;;;;;;;;22.27;22.75;97860.88;5062989;28;993;-80
2022/02/19 13:13:38;;;;;;;;;;;;;;;22.33;22.88;97861.94;5060491;28;930;-79